createdAt,value
2023-08-15T00:02:23.249Z,23.39
2023-08-15T00:04:51.604Z,23.40
2023-08-15T00:07:20.176Z,23.39
2023-08-15T00:09:48.555Z,23.37
2023-08-15T00:12:16.834Z,23.34
2023-08-15T00:14:45.156Z,23.31
2023-08-15T00:17:13.503Z,23.28
2023-08-15T00:19:41.760Z,23.27
2023-08-15T00:22:10.228Z,23.25
2023-08-15T00:24:38.554Z,23.25
2023-08-15T00:27:06.884Z,23.24
2023-08-15T00:29:35.147Z,23.22
2023-08-15T00:32:03.538Z,23.21
2023-08-15T00:34:31.799Z,23.21
2023-08-15T00:37:00.209Z,23.20
2023-08-15T00:39:28.576Z,23.15
2023-08-15T00:41:57.770Z,23.14
2023-08-15T00:44:26.312Z,23.11
2023-08-15T00:46:54.959Z,23.12
2023-08-15T00:49:23.305Z,23.11
2023-08-15T00:51:51.665Z,23.11
2023-08-15T00:54:19.958Z,23.09
2023-08-15T00:56:48.316Z,23.09
2023-08-15T00:59:16.776Z,23.10
2023-08-15T01:01:45.273Z,23.09
2023-08-15T01:04:14.513Z,23.07
2023-08-15T01:06:43.329Z,23.04
2023-08-15T01:09:11.646Z,23.02
2023-08-15T01:11:47.290Z,23.00
2023-08-15T01:14:17.985Z,22.97
2023-08-15T01:16:47.732Z,22.94
2023-08-15T01:19:35.018Z,22.92
2023-08-15T01:22:05.216Z,22.88
2023-08-15T01:24:35.513Z,22.82
2023-08-15T01:27:04.284Z,22.76
2023-08-15T01:29:32.762Z,22.70
2023-08-15T01:32:21.372Z,22.58
2023-08-15T01:35:29.812Z,22.47
2023-08-15T01:38:11.792Z,22.30
2023-08-15T01:40:41.376Z,22.21
2023-08-15T01:43:11.664Z,22.17
2023-08-15T01:45:39.997Z,22.14
2023-08-15T01:48:09.480Z,22.16
2023-08-15T01:50:37.816Z,22.15
2023-08-15T01:53:06.049Z,22.14
2023-08-15T01:55:34.576Z,22.13
2023-08-15T01:58:02.866Z,22.12
2023-08-15T02:00:31.165Z,22.08
2023-08-15T02:02:59.439Z,21.98
2023-08-15T02:05:27.971Z,21.94
2023-08-15T02:07:56.398Z,21.86
2023-08-15T02:10:24.651Z,21.73
2023-08-15T02:12:52.964Z,21.61
2023-08-15T02:15:21.357Z,21.50
2023-08-15T02:17:49.650Z,21.45
2023-08-15T02:20:17.973Z,21.42
2023-08-15T02:22:46.346Z,21.42
2023-08-15T02:25:14.770Z,21.41
2023-08-15T02:27:43.081Z,21.42
2023-08-15T02:30:11.827Z,21.35
2023-08-15T02:32:40.127Z,21.30
2023-08-15T02:35:09.001Z,21.32
2023-08-15T02:37:37.314Z,21.35
2023-08-15T02:40:07.832Z,21.37
2023-08-15T02:42:36.138Z,21.44
2023-08-15T02:45:05.533Z,21.51
2023-08-15T02:47:33.870Z,21.53
2023-08-15T02:50:02.189Z,21.53
2023-08-15T02:52:31.874Z,21.53
2023-08-15T02:55:00.161Z,21.46
2023-08-15T02:57:28.522Z,21.45
2023-08-15T02:59:56.809Z,21.45
2023-08-15T03:02:25.285Z,21.48
2023-08-15T03:04:53.644Z,21.43
2023-08-15T03:07:22.037Z,21.41
2023-08-15T03:09:50.793Z,21.36
2023-08-15T03:12:19.085Z,21.28
2023-08-15T03:14:47.408Z,21.20
2023-08-15T03:17:15.813Z,21.11
2023-08-15T03:19:44.016Z,21.06
2023-08-15T03:22:12.417Z,21.05
2023-08-15T03:24:40.768Z,21.09
2023-08-15T03:27:10.111Z,21.16
2023-08-15T03:29:38.623Z,21.23
2023-08-15T03:32:07.257Z,21.27
2023-08-15T03:34:36.979Z,21.32
2023-08-15T03:37:05.437Z,21.37
2023-08-15T03:39:33.798Z,21.29
2023-08-15T03:42:02.112Z,21.26
2023-08-15T03:44:30.439Z,21.25
2023-08-15T03:46:58.728Z,21.29
2023-08-15T03:49:27.119Z,21.29
2023-08-15T03:51:55.412Z,21.31
2023-08-15T03:54:23.867Z,21.31
2023-08-15T03:56:52.192Z,21.30
2023-08-15T03:59:20.510Z,21.27
2023-08-15T04:01:48.828Z,21.18
2023-08-15T04:04:17.141Z,21.09
2023-08-15T04:06:45.544Z,21.02
2023-08-15T04:09:13.954Z,20.93
2023-08-15T04:11:42.479Z,20.83
2023-08-15T04:14:10.891Z,20.84
2023-08-15T04:16:40.049Z,20.89
2023-08-15T04:19:08.808Z,20.84
2023-08-15T04:21:37.385Z,20.74
2023-08-15T04:24:05.823Z,20.70
2023-08-15T04:26:34.444Z,20.76
2023-08-15T04:29:02.837Z,20.81
2023-08-15T04:31:31.309Z,20.83
2023-08-15T04:33:59.577Z,20.86
2023-08-15T04:36:28.282Z,20.87
2023-08-15T04:38:56.828Z,20.96
2023-08-15T04:41:26.129Z,21.07
2023-08-15T04:43:55.057Z,21.17
2023-08-15T04:46:23.670Z,21.24
2023-08-15T04:48:52.829Z,21.26
2023-08-15T04:51:21.862Z,21.32
2023-08-15T04:53:51.364Z,21.35
2023-08-15T04:56:21.491Z,21.32
2023-08-15T04:58:49.887Z,21.27
2023-08-15T05:01:18.402Z,21.22
2023-08-15T05:03:46.800Z,21.20
2023-08-15T05:06:15.414Z,21.23
2023-08-15T05:08:44.262Z,21.27
2023-08-15T05:11:12.553Z,21.30
2023-08-15T05:13:41.773Z,21.34
2023-08-15T05:16:10.336Z,21.38
2023-08-15T05:18:38.750Z,21.51
2023-08-15T05:21:07.155Z,21.61
2023-08-15T05:23:36.636Z,21.64
2023-08-15T05:26:05.426Z,21.70
2023-08-15T05:28:33.932Z,21.81
2023-08-15T05:31:02.419Z,21.93
2023-08-15T05:33:31.831Z,22.05
2023-08-15T05:36:00.244Z,22.18
2023-08-15T05:38:28.551Z,22.29
2023-08-15T05:40:56.998Z,22.36
2023-08-15T05:43:25.243Z,22.41
2023-08-15T05:45:53.475Z,22.51
2023-08-15T05:48:21.787Z,22.63
2023-08-15T05:50:50.035Z,22.71
2023-08-15T05:53:18.453Z,22.75
2023-08-15T05:55:46.811Z,22.76
2023-08-15T05:58:15.119Z,22.78
2023-08-15T06:00:43.632Z,22.78
2023-08-15T06:03:12.098Z,22.78
2023-08-15T06:05:40.443Z,22.82
2023-08-15T06:08:08.723Z,22.86
2023-08-15T06:10:37.061Z,22.90
2023-08-15T06:13:05.507Z,22.91
2023-08-15T06:15:33.850Z,23.00
2023-08-15T06:18:02.140Z,23.08
2023-08-15T06:20:30.592Z,23.14
2023-08-15T06:22:58.894Z,23.20
2023-08-15T06:25:27.266Z,23.29
2023-08-15T06:27:55.628Z,23.32
2023-08-15T06:30:23.952Z,23.37
2023-08-15T06:32:52.560Z,23.39
2023-08-15T06:35:21.059Z,23.48
2023-08-15T06:37:49.328Z,23.59
2023-08-15T06:40:18.185Z,23.65
2023-08-15T06:42:46.506Z,23.73
2023-08-15T06:45:17.543Z,23.85
2023-08-15T06:47:45.966Z,23.97
2023-08-15T06:50:14.286Z,24.05
2023-08-15T06:52:42.571Z,24.14
2023-08-15T06:55:11.044Z,24.21
2023-08-15T06:57:39.776Z,24.31
2023-08-15T07:00:10.864Z,24.36
2023-08-15T07:02:39.775Z,24.40
2023-08-15T07:05:08.821Z,24.52
2023-08-15T07:07:37.064Z,24.58
2023-08-15T07:10:08.797Z,24.64
2023-08-15T07:12:37.415Z,24.68
2023-08-15T07:15:06.240Z,24.77
2023-08-15T07:17:34.689Z,24.87
2023-08-15T07:20:06.133Z,24.95
2023-08-15T07:22:34.552Z,25.05
2023-08-15T07:25:03.140Z,25.15
2023-08-15T07:27:31.476Z,25.23
2023-08-15T07:29:59.928Z,25.32
2023-08-15T07:32:29.916Z,25.43
2023-08-15T07:34:58.312Z,25.52
2023-08-15T07:37:26.546Z,25.62
2023-08-15T07:40:11.357Z,25.71
2023-08-15T07:42:39.927Z,25.79
2023-08-15T07:45:08.783Z,25.89
2023-08-15T07:47:39.762Z,25.96
2023-08-15T07:50:23.990Z,26.00
2023-08-15T07:52:52.320Z,26.11
2023-08-15T07:55:20.940Z,26.20
2023-08-15T07:57:49.290Z,26.27
2023-08-15T08:00:17.961Z,26.41
2023-08-15T08:02:46.952Z,26.49
2023-08-15T08:05:17.604Z,26.55
2023-08-15T08:07:46.270Z,26.63
2023-08-15T08:10:14.740Z,26.72
2023-08-15T08:12:43.252Z,26.82
2023-08-15T08:15:11.676Z,26.90
2023-08-15T08:17:40.179Z,26.98
2023-08-15T08:20:17.456Z,27.06
2023-08-15T08:22:45.756Z,27.12
2023-08-15T08:25:15.148Z,27.18
2023-08-15T08:27:47.533Z,27.27
2023-08-15T08:30:20.604Z,27.34
2023-08-15T08:32:49.020Z,27.43
2023-08-15T08:35:17.568Z,27.51
2023-08-15T08:37:46.857Z,27.59
2023-08-15T08:40:15.448Z,27.61
2023-08-15T08:42:44.519Z,27.69
2023-08-15T08:45:13.564Z,27.72
2023-08-15T08:47:42.641Z,27.77
2023-08-15T08:50:12.085Z,27.81
2023-08-15T08:52:50.152Z,27.87
2023-08-15T08:55:20.533Z,27.94
2023-08-15T08:57:54.224Z,28.03
2023-08-15T09:00:33.827Z,28.13
2023-08-15T09:03:02.301Z,28.20
2023-08-15T09:05:30.629Z,28.29
2023-08-15T09:07:59.492Z,28.35
2023-08-15T09:10:27.820Z,28.43
2023-08-15T09:13:00.961Z,28.50
2023-08-15T09:15:31.337Z,28.49
2023-08-15T09:18:06.296Z,28.52
2023-08-15T09:20:45.701Z,28.53
2023-08-15T09:23:14.024Z,28.55
2023-08-15T09:25:42.544Z,28.55
2023-08-15T09:28:10.866Z,28.62
2023-08-15T09:30:39.398Z,28.65
2023-08-15T09:33:07.820Z,28.66
2023-08-15T09:35:42.516Z,28.73
2023-08-15T09:38:15.505Z,28.77
2023-08-15T09:40:45.516Z,28.82
2023-08-15T09:43:16.988Z,28.86
2023-08-15T09:45:45.334Z,28.96
2023-08-15T09:48:13.720Z,29.05
2023-08-15T09:50:43.974Z,29.15
2023-08-15T09:53:13.447Z,29.28
2023-08-15T09:55:42.385Z,29.35
2023-08-15T09:58:10.827Z,29.36
2023-08-15T10:00:40.221Z,29.46
2023-08-15T10:03:25.406Z,29.48
2023-08-15T10:05:55.511Z,29.58
2023-08-15T10:08:26.366Z,29.72
2023-08-15T10:10:55.694Z,29.83
2023-08-15T10:13:27.189Z,29.95
2023-08-15T10:15:56.041Z,30.01
2023-08-15T10:18:25.424Z,30.07
2023-08-15T10:20:54.652Z,30.17
2023-08-15T10:23:25.731Z,30.30
2023-08-15T10:25:54.656Z,30.33
2023-08-15T10:28:22.961Z,30.45
2023-08-15T10:30:52.913Z,30.52
2023-08-15T10:33:26.528Z,30.56
2023-08-15T10:35:57.631Z,30.59
2023-08-15T10:38:29.330Z,30.64
2023-08-15T10:41:20.876Z,30.63
2023-08-15T10:43:51.544Z,30.55
2023-08-15T10:46:26.263Z,30.64
2023-08-15T10:49:03.847Z,30.75
2023-08-15T10:51:35.513Z,30.87
2023-08-15T10:54:13.655Z,30.99
2023-08-15T10:56:43.001Z,31.11
2023-08-15T10:59:13.905Z,31.21
2023-08-15T11:01:44.595Z,31.18
2023-08-15T11:04:18.130Z,31.21
2023-08-15T11:06:51.003Z,31.31
2023-08-15T11:09:19.317Z,31.34
2023-08-15T11:11:48.020Z,31.35
2023-08-15T11:14:18.122Z,31.47
2023-08-15T11:16:47.667Z,31.52
2023-08-15T11:19:20.017Z,31.61
2023-08-15T11:21:49.354Z,31.73
2023-08-15T11:24:17.834Z,31.84
2023-08-15T11:26:46.316Z,31.86
2023-08-15T11:29:15.736Z,31.87
2023-08-15T11:31:44.194Z,31.76
2023-08-15T11:34:13.672Z,31.77
2023-08-15T11:36:42.151Z,31.95
2023-08-15T11:39:14.358Z,32.20
2023-08-15T11:41:43.100Z,32.42
2023-08-15T11:44:11.691Z,32.68
2023-08-15T11:46:53.844Z,32.93
2023-08-15T11:49:24.570Z,33.10
2023-08-15T11:52:03.261Z,33.11
2023-08-15T11:54:31.688Z,33.06
2023-08-15T11:57:00.120Z,33.01
2023-08-15T11:59:28.468Z,32.95
2023-08-15T12:01:56.952Z,32.93
2023-08-15T12:04:26.066Z,32.98
2023-08-15T12:06:57.274Z,33.11
2023-08-15T12:09:30.805Z,33.30
2023-08-15T12:12:00.563Z,33.38
2023-08-15T12:14:33.024Z,33.50
2023-08-15T12:17:07.114Z,33.67
2023-08-15T12:19:35.566Z,33.70
2023-08-15T12:22:04.385Z,33.84
2023-08-15T12:24:32.638Z,34.02
2023-08-15T12:27:02.959Z,34.22
2023-08-15T12:30:11.041Z,34.46
2023-08-15T12:32:20.084Z,34.61
2023-08-15T12:34:48.626Z,34.70
2023-08-15T12:37:17.047Z,34.78
2023-08-15T12:39:45.585Z,34.84
2023-08-15T12:42:14.974Z,34.87
2023-08-15T12:44:43.733Z,34.94
2023-08-15T12:47:12.183Z,34.97
2023-08-15T12:49:40.856Z,35.08
2023-08-15T12:52:09.117Z,34.90
2023-08-15T12:54:38.915Z,34.74
2023-08-15T12:57:09.939Z,34.82
2023-08-15T12:59:39.074Z,35.11
2023-08-15T13:02:08.019Z,35.36
2023-08-15T13:04:36.472Z,35.51
2023-08-15T13:07:05.027Z,35.28
2023-08-15T13:09:33.408Z,34.85
2023-08-15T13:12:02.669Z,34.65
2023-08-15T13:14:33.710Z,34.40
2023-08-15T13:17:02.381Z,34.46
2023-08-15T13:19:32.129Z,34.76
2023-08-15T13:22:00.522Z,34.82
2023-08-15T13:24:29.273Z,34.77
2023-08-15T13:26:57.656Z,34.63
2023-08-15T13:29:26.268Z,34.87
2023-08-15T13:31:54.693Z,35.35
2023-08-15T13:34:26.865Z,35.73
2023-08-15T13:36:55.149Z,36.04
2023-08-15T13:39:23.629Z,36.35
2023-08-15T13:41:51.998Z,36.56
2023-08-15T13:44:20.268Z,36.50
2023-08-15T13:46:48.628Z,36.42
2023-08-15T13:49:16.966Z,36.17
2023-08-15T13:51:45.374Z,36.17
2023-08-15T13:54:13.618Z,36.16
2023-08-15T13:56:41.929Z,36.19
2023-08-15T13:59:10.193Z,36.15
2023-08-15T14:01:38.428Z,36.06
2023-08-15T14:04:06.936Z,35.99
2023-08-15T14:06:35.357Z,36.06
2023-08-15T14:09:03.804Z,36.10
2023-08-15T14:11:32.188Z,36.14
2023-08-15T14:14:00.397Z,36.37
2023-08-15T14:16:28.737Z,36.57
2023-08-15T14:18:57.081Z,36.65
2023-08-15T14:21:25.381Z,36.59
2023-08-15T14:23:53.731Z,36.50
2023-08-15T14:26:21.995Z,36.08
2023-08-15T14:28:50.277Z,35.63
2023-08-15T14:31:18.575Z,35.42
2023-08-15T14:33:47.021Z,35.10
2023-08-15T14:36:15.335Z,35.04
2023-08-15T14:38:45.559Z,34.87
2023-08-15T14:41:14.269Z,34.81
2023-08-15T14:43:42.670Z,34.85
2023-08-15T14:46:10.980Z,34.94
2023-08-15T14:48:39.273Z,34.99
2023-08-15T14:51:07.705Z,34.88
2023-08-15T14:53:36.016Z,34.80
2023-08-15T14:56:04.597Z,34.69
2023-08-15T14:58:32.941Z,34.65
2023-08-15T15:01:01.236Z,34.48
2023-08-15T15:03:29.585Z,34.13
2023-08-15T15:05:57.976Z,34.01
2023-08-15T15:08:27.586Z,33.92
2023-08-15T15:10:56.035Z,33.79
2023-08-15T15:13:24.607Z,33.72
2023-08-15T15:15:54.547Z,33.62
2023-08-15T15:18:23.860Z,33.48
2023-08-15T15:20:52.238Z,33.30
2023-08-15T15:23:20.853Z,33.14
2023-08-15T15:25:49.614Z,33.05
2023-08-15T15:28:18.118Z,32.97
2023-08-15T15:30:46.542Z,32.87
2023-08-15T15:33:15.006Z,32.77
2023-08-15T15:35:43.685Z,32.59
2023-08-15T15:38:12.086Z,32.59
2023-08-15T15:40:40.659Z,32.58
2023-08-15T15:43:09.084Z,32.49
2023-08-15T15:45:37.764Z,32.27
2023-08-15T15:48:06.863Z,32.19
2023-08-15T15:50:35.280Z,32.05
2023-08-15T15:53:04.915Z,31.87
2023-08-15T15:55:33.600Z,31.76
2023-08-15T15:58:02.614Z,31.67
2023-08-15T16:00:31.283Z,31.55
2023-08-15T16:02:59.653Z,31.57
2023-08-15T16:05:28.099Z,31.59
2023-08-15T16:07:56.451Z,31.60
2023-08-15T16:10:24.857Z,31.55
2023-08-15T16:12:53.196Z,31.51
2023-08-15T16:15:21.660Z,31.50
2023-08-15T16:17:50.346Z,31.42
2023-08-15T16:20:18.726Z,31.23
2023-08-15T16:22:47.015Z,31.13
2023-08-15T16:25:15.333Z,31.04
2023-08-15T16:27:43.611Z,31.04
2023-08-15T16:30:18.229Z,30.99
2023-08-15T16:32:49.437Z,30.87
2023-08-15T16:35:18.054Z,30.79
2023-08-15T16:37:46.777Z,30.69
2023-08-15T16:40:15.512Z,30.58
2023-08-15T16:42:43.978Z,30.54
2023-08-15T16:45:12.606Z,30.50
2023-08-15T16:47:41.005Z,30.43
2023-08-15T16:50:09.508Z,30.36
2023-08-15T16:52:37.894Z,30.34
2023-08-15T16:55:06.608Z,30.19
2023-08-15T16:57:34.888Z,30.09
2023-08-15T17:00:03.272Z,30.02
2023-08-15T17:02:31.726Z,29.94
2023-08-15T17:05:00.009Z,29.87
2023-08-15T17:07:28.427Z,29.82
2023-08-15T17:09:56.866Z,29.75
2023-08-15T17:12:25.328Z,29.71
2023-08-15T17:14:56.326Z,29.63
2023-08-15T17:17:24.852Z,29.54
2023-08-15T17:19:53.339Z,29.48
2023-08-15T17:22:21.909Z,29.42
2023-08-15T17:24:51.319Z,29.36
2023-08-15T17:27:19.640Z,29.28
2023-08-15T17:29:47.985Z,29.21
2023-08-15T17:32:16.244Z,29.14
2023-08-15T17:34:44.485Z,29.06
2023-08-15T17:37:12.776Z,29.01
2023-08-15T17:39:41.216Z,28.92
2023-08-15T17:42:09.617Z,28.82
2023-08-15T17:44:37.891Z,28.75
2023-08-15T17:47:07.090Z,28.69
2023-08-15T17:49:35.476Z,28.64
2023-08-15T17:52:03.896Z,28.62
2023-08-15T17:54:32.274Z,28.59
2023-08-15T17:57:00.708Z,28.58
2023-08-15T17:59:29.085Z,28.56
2023-08-15T18:01:59.474Z,28.51
2023-08-15T18:04:29.410Z,28.47
2023-08-15T18:06:57.766Z,28.43
2023-08-15T18:09:26.324Z,28.41
2023-08-15T18:11:54.625Z,28.38
2023-08-15T18:14:23.238Z,28.35
2023-08-15T18:16:51.533Z,28.32
2023-08-15T18:19:20.567Z,28.29
2023-08-15T18:21:48.952Z,28.27
2023-08-15T18:24:18.625Z,28.27
2023-08-15T18:26:47.060Z,28.27
2023-08-15T18:29:15.340Z,28.25
2023-08-15T18:31:43.763Z,28.21
2023-08-15T18:34:12.086Z,28.20
2023-08-15T18:36:40.700Z,28.19
2023-08-15T18:39:10.166Z,28.14
2023-08-15T18:41:38.474Z,28.14
2023-08-15T18:44:08.233Z,28.11
2023-08-15T18:46:38.172Z,28.07
2023-08-15T18:49:07.182Z,28.03
2023-08-15T18:51:35.453Z,27.99
2023-08-15T18:54:04.093Z,27.96
2023-08-15T18:56:32.390Z,27.94
2023-08-15T18:59:00.844Z,27.93
2023-08-15T19:01:29.177Z,27.91
2023-08-15T19:03:57.641Z,27.87
2023-08-15T19:06:26.088Z,27.88
2023-08-15T19:08:54.468Z,27.88
2023-08-15T19:11:22.727Z,27.86
2023-08-15T19:13:50.981Z,27.82
2023-08-15T19:16:19.299Z,27.80
2023-08-15T19:18:47.623Z,27.77
2023-08-15T19:21:17.717Z,27.74
2023-08-15T19:23:46.525Z,27.73
2023-08-15T19:26:14.806Z,27.70
2023-08-15T19:28:43.089Z,27.68
2023-08-15T19:31:13.066Z,27.64
2023-08-15T19:33:41.707Z,27.60
2023-08-15T19:36:10.154Z,27.56
2023-08-15T19:38:38.457Z,27.53
2023-08-15T19:41:06.748Z,27.49
2023-08-15T19:43:35.030Z,27.45
2023-08-15T19:46:03.419Z,27.42
2023-08-15T19:48:34.543Z,27.38
2023-08-15T19:51:03.019Z,27.36
2023-08-15T19:53:31.402Z,27.32
2023-08-15T19:55:59.630Z,27.29
2023-08-15T19:58:27.858Z,27.25
2023-08-15T20:00:56.163Z,27.21
2023-08-15T20:03:24.702Z,27.17
2023-08-15T20:05:52.977Z,27.14
2023-08-15T20:08:21.294Z,27.11
2023-08-15T20:10:53.221Z,27.09
2023-08-15T20:13:23.299Z,27.07
2023-08-15T20:15:58.002Z,27.06
2023-08-15T20:18:26.698Z,27.04
2023-08-15T20:20:55.131Z,27.02
2023-08-15T20:23:23.557Z,26.99
2023-08-15T20:25:52.973Z,26.95
2023-08-15T20:28:21.298Z,26.91
2023-08-15T20:30:49.838Z,26.86
2023-08-15T20:33:18.206Z,26.86
2023-08-15T20:35:46.695Z,26.82
2023-08-15T20:38:15.647Z,26.83
2023-08-15T20:40:46.040Z,26.82
2023-08-15T20:43:15.684Z,26.81
2023-08-15T20:45:44.027Z,26.79
2023-08-15T20:48:12.309Z,26.75
2023-08-15T20:50:40.635Z,26.73
2023-08-15T20:53:09.756Z,26.73
2023-08-15T20:55:38.024Z,26.71
2023-08-15T20:58:07.160Z,26.67
2023-08-15T21:00:35.463Z,26.64
2023-08-15T21:03:04.081Z,26.64
2023-08-15T21:05:32.448Z,26.63
2023-08-15T21:08:00.985Z,26.63
2023-08-15T21:10:30.778Z,26.63
2023-08-15T21:12:59.141Z,26.62
2023-08-15T21:15:27.712Z,26.62
2023-08-15T21:17:56.230Z,26.61
2023-08-15T21:20:24.705Z,26.59
2023-08-15T21:22:53.117Z,26.58
2023-08-15T21:25:21.573Z,26.58
2023-08-15T21:27:50.034Z,26.56
2023-08-15T21:30:18.464Z,26.52
2023-08-15T21:32:47.049Z,26.54
2023-08-15T21:35:15.732Z,26.51
2023-08-15T21:37:44.234Z,26.48
2023-08-15T21:40:14.313Z,26.43
2023-08-15T21:42:43.010Z,26.39
2023-08-15T21:45:11.749Z,26.33
2023-08-15T21:47:40.430Z,26.30
2023-08-15T21:50:09.398Z,26.27
2023-08-15T21:52:38.448Z,26.24
2023-08-15T21:55:07.096Z,26.21
2023-08-15T21:57:35.564Z,26.17
2023-08-15T22:00:04.726Z,26.14
2023-08-15T22:02:40.273Z,26.11
2023-08-15T22:05:09.027Z,26.03
2023-08-15T22:07:37.717Z,25.93
2023-08-15T22:10:07.483Z,25.85
2023-08-15T22:12:35.970Z,25.79
2023-08-15T22:15:05.406Z,25.74
2023-08-15T22:17:45.190Z,25.68
2023-08-15T22:20:15.314Z,25.62
2023-08-15T22:23:30.731Z,25.53
2023-08-15T22:25:59.136Z,25.48
2023-08-15T22:28:27.838Z,25.48
2023-08-15T22:30:56.330Z,25.44
2023-08-15T22:33:24.717Z,25.43
2023-08-15T22:35:53.126Z,25.42
2023-08-15T22:38:21.626Z,25.35
2023-08-15T22:40:50.164Z,25.35
2023-08-15T22:43:18.676Z,25.34
2023-08-15T22:45:47.364Z,25.32
2023-08-15T22:48:15.931Z,25.32
2023-08-15T22:50:44.368Z,25.31
2023-08-15T22:53:12.878Z,25.32
2023-08-15T22:55:41.397Z,25.32
2023-08-15T22:58:11.584Z,25.31
2023-08-15T23:00:40.192Z,25.28
2023-08-15T23:03:08.856Z,25.26
2023-08-15T23:05:37.353Z,25.24
2023-08-15T23:08:06.030Z,25.23
2023-08-15T23:10:34.491Z,25.18
2023-08-15T23:13:03.055Z,25.17
2023-08-15T23:15:31.523Z,25.13
2023-08-15T23:18:00.018Z,25.14
2023-08-15T23:20:28.492Z,25.14
2023-08-15T23:22:56.977Z,25.15
2023-08-15T23:25:25.589Z,25.16
2023-08-15T23:27:53.977Z,25.18
2023-08-15T23:30:22.514Z,25.21
2023-08-15T23:32:51.233Z,25.22
2023-08-15T23:35:19.642Z,25.23
2023-08-15T23:37:48.282Z,25.23
2023-08-15T23:40:16.671Z,25.24
2023-08-15T23:42:45.353Z,25.27
2023-08-15T23:45:14.026Z,25.29
2023-08-15T23:47:42.838Z,25.28
2023-08-15T23:50:13.239Z,25.28
2023-08-15T23:52:41.652Z,25.26
2023-08-15T23:55:11.711Z,25.23
2023-08-15T23:57:40.581Z,25.13
